createdAt,value
2023-04-08T00:00:09.273Z,101077.16
2023-04-08T00:03:00.837Z,101016.53
2023-04-08T00:06:01.715Z,101072.13
2023-04-08T00:08:42.184Z,101052.22
2023-04-08T00:11:09.109Z,101072.66
2023-04-08T00:13:36.389Z,100991.91
2023-04-08T00:16:03.456Z,101087.09
2023-04-08T00:18:30.527Z,100975.91
2023-04-08T00:21:17.680Z,101056.59
2023-04-08T00:23:58.203Z,101046.22
2023-04-08T00:26:26.558Z,101025.72
2023-04-08T00:28:53.588Z,101025.56
2023-04-08T00:31:20.876Z,101098.47
2023-04-08T00:33:48.002Z,101048.94
2023-04-08T00:36:14.919Z,101008.22
2023-04-08T00:38:41.979Z,101090.75
2023-04-08T00:41:08.861Z,101021.63
2023-04-08T00:43:36.022Z,101008.16
2023-04-08T00:46:22.810Z,101079.50
2023-04-08T00:49:03.281Z,101005.16
2023-04-08T00:51:31.417Z,101066.94
2023-04-08T00:53:58.552Z,101000.22
2023-04-08T00:56:26.233Z,100977.72
2023-04-08T00:58:55.303Z,101040.03
2023-04-08T01:02:13.004Z,101096.28
2023-04-08T01:05:13.280Z,101078.63
2023-04-08T01:07:50.533Z,101075.13
2023-04-08T01:10:23.861Z,101017.03
2023-04-08T01:12:56.351Z,101023.66
2023-04-08T01:15:26.340Z,101018.19
2023-04-08T01:17:56.090Z,101008.34
2023-04-08T01:20:43.713Z,101087.41
2023-04-08T01:23:54.736Z,101095.69
2023-04-08T01:26:36.246Z,101080.66
2023-04-08T01:29:04.932Z,101003.66
2023-04-08T01:31:32.600Z,101014.53
2023-04-08T01:34:01.654Z,101086.59
2023-04-08T01:36:29.492Z,101091.63
2023-04-08T01:38:57.011Z,101095.25
2023-04-08T01:41:24.242Z,101036.75
2023-04-08T01:43:53.687Z,100890.66
2023-04-08T01:46:42.773Z,101047.91
2023-04-08T01:49:25.109Z,101044.94
2023-04-08T01:51:55.508Z,101089.81
2023-04-08T01:54:22.550Z,101014.00
2023-04-08T01:56:51.608Z,101080.88
2023-04-08T01:59:21.762Z,101048.28
2023-04-08T02:01:56.836Z,100973.81
2023-04-08T02:04:50.773Z,101034.66
2023-04-08T02:07:24.560Z,101003.16
2023-04-08T02:09:51.651Z,101013.47
2023-04-08T02:12:19.080Z,101000.75
2023-04-08T02:14:47.261Z,101029.56
2023-04-08T02:17:25.055Z,101081.22
2023-04-08T02:20:26.764Z,101078.69
2023-04-08T02:23:33.755Z,101076.56
2023-04-08T02:26:25.798Z,101072.25
2023-04-08T02:28:56.208Z,101066.53
2023-04-08T02:31:24.656Z,100994.25
2023-04-08T02:33:52.983Z,101070.81
2023-04-08T02:36:22.228Z,100967.25
2023-04-08T02:38:50.481Z,100995.19
2023-04-08T02:41:17.678Z,101051.66
2023-04-08T02:43:44.646Z,101030.53
2023-04-08T02:46:31.761Z,101066.75
2023-04-08T02:49:12.370Z,101050.34
2023-04-08T02:51:39.377Z,100967.63
2023-04-08T02:54:06.359Z,101077.66
2023-04-08T02:56:33.336Z,101012.69
2023-04-08T02:59:00.497Z,101077.88
2023-04-08T03:01:27.570Z,101041.41
2023-04-08T03:03:54.612Z,101023.91
2023-04-08T03:06:21.651Z,101031.81
2023-04-08T03:08:48.915Z,101077.84
2023-04-08T03:11:16.117Z,101087.03
2023-04-08T03:13:43.018Z,101026.84
2023-04-08T03:16:09.957Z,101070.78
2023-04-08T03:18:36.913Z,101091.66
2023-04-08T03:21:23.817Z,101060.06
2023-04-08T03:24:04.420Z,101035.47
2023-04-08T03:26:31.414Z,101011.59
2023-04-08T03:28:58.412Z,101067.72
2023-04-08T03:31:26.142Z,101098.53
2023-04-08T03:33:53.060Z,100998.88
2023-04-08T03:36:19.992Z,101080.09
2023-04-08T03:38:46.954Z,101077.53
2023-04-08T03:41:33.803Z,101064.16
2023-04-08T03:44:34.818Z,101051.13
2023-04-08T03:47:35.875Z,101006.53
2023-04-08T03:50:03.573Z,101096.66
2023-04-08T03:52:30.610Z,101068.53
2023-04-08T03:54:58.167Z,101007.50
2023-04-08T03:57:25.366Z,100995.25
2023-04-08T04:00:12.812Z,101070.78
2023-04-08T04:03:13.987Z,101021.94
2023-04-08T04:06:08.050Z,101094.13
2023-04-08T04:08:48.319Z,101059.47
2023-04-08T04:11:15.469Z,101088.97
2023-04-08T04:13:42.433Z,101050.44
2023-04-08T04:16:09.487Z,101086.47
2023-04-08T04:18:36.546Z,101075.56
2023-04-08T04:21:23.799Z,101035.13
2023-04-08T04:24:04.615Z,101072.66
2023-04-08T04:26:31.540Z,101099.50
2023-04-08T04:28:58.510Z,101083.06
2023-04-08T04:31:28.900Z,101049.66
2023-04-08T04:33:55.894Z,101074.28
2023-04-08T04:36:22.972Z,101120.53
2023-04-08T04:38:51.434Z,101024.00
2023-04-08T04:41:38.846Z,101040.72
2023-04-08T04:44:39.823Z,101091.78
2023-04-08T04:47:20.465Z,101105.41
2023-04-08T04:49:47.612Z,101036.00
2023-04-08T04:52:14.667Z,101087.31
2023-04-08T04:54:41.633Z,101104.41
2023-04-08T04:57:08.624Z,101095.75
2023-04-08T04:59:35.871Z,101051.91
2023-04-08T05:02:03.115Z,101029.91
2023-04-08T05:04:30.580Z,101080.19
2023-04-08T05:06:59.605Z,101107.81
2023-04-08T05:09:26.636Z,101131.22
2023-04-08T05:11:53.569Z,101097.59
2023-04-08T05:14:20.468Z,101098.84
2023-04-08T05:16:47.968Z,101074.25
2023-04-08T05:19:14.979Z,101066.69
2023-04-08T05:22:01.852Z,101058.75
2023-04-08T05:24:56.066Z,101094.06
2023-04-08T05:27:49.853Z,101125.38
2023-04-08T05:30:31.116Z,101101.78
2023-04-08T05:33:00.432Z,101158.47
2023-04-08T05:35:28.894Z,101126.22
2023-04-08T05:37:56.183Z,101141.78
2023-04-08T05:40:42.871Z,101116.09
2023-04-08T05:43:23.421Z,101139.72
2023-04-08T05:45:50.382Z,101161.78
2023-04-08T05:48:17.292Z,101127.88
2023-04-08T05:50:44.311Z,101062.59
2023-04-08T05:53:11.418Z,101140.38
2023-04-08T05:55:38.413Z,101101.28
2023-04-08T05:58:05.503Z,101129.88
2023-04-08T06:00:32.404Z,101158.03
2023-04-08T06:02:59.938Z,101104.94
2023-04-08T06:05:27.100Z,101137.41
2023-04-08T06:07:53.960Z,101147.28
2023-04-08T06:10:20.859Z,101179.81
2023-04-08T06:12:47.757Z,101084.00
2023-04-08T06:15:14.636Z,101177.38
2023-04-08T06:17:42.960Z,101086.75
2023-04-08T06:20:29.886Z,101122.19
2023-04-08T06:23:13.484Z,101149.09
2023-04-08T06:25:40.365Z,101104.81
2023-04-08T06:28:07.231Z,101071.25
2023-04-08T06:30:34.315Z,101124.09
2023-04-08T06:33:01.320Z,101123.97
2023-04-08T06:35:48.936Z,101171.81
2023-04-08T06:38:50.146Z,101146.19
2023-04-08T06:41:50.882Z,101166.59
2023-04-08T06:44:54.534Z,101157.19
2023-04-08T06:47:21.535Z,101146.41
2023-04-08T06:49:48.517Z,101148.09
2023-04-08T06:52:15.890Z,101164.28
2023-04-08T06:54:43.426Z,101177.06
2023-04-08T06:57:10.364Z,101000.19
2023-04-08T06:59:37.279Z,101111.47
2023-04-08T07:02:04.293Z,101160.88
2023-04-08T07:04:31.708Z,101101.19
2023-04-08T07:06:58.618Z,101177.13
2023-04-08T07:09:25.520Z,101087.53
2023-04-08T07:11:52.512Z,101190.59
2023-04-08T07:14:19.841Z,101117.94
2023-04-08T07:16:46.986Z,101137.25
2023-04-08T07:19:13.935Z,101124.59
2023-04-08T07:22:00.922Z,101138.03
2023-04-08T07:24:43.487Z,101166.91
2023-04-08T07:27:10.635Z,101130.28
2023-04-08T07:29:37.470Z,101159.72
2023-04-08T07:32:04.566Z,101131.22
2023-04-08T07:34:51.940Z,101142.81
2023-04-08T07:37:42.109Z,101164.97
2023-04-08T07:40:28.934Z,101202.56
2023-04-08T07:43:29.932Z,101194.56
2023-04-08T07:46:10.626Z,101164.84
2023-04-08T07:48:37.670Z,101200.63
2023-04-08T07:51:09.599Z,101151.41
2023-04-08T07:53:38.868Z,101216.69
2023-04-08T07:56:16.256Z,101212.69
2023-04-08T07:58:43.626Z,101178.75
2023-04-08T08:01:22.673Z,101194.19
2023-04-08T08:03:52.400Z,101218.66
2023-04-08T08:06:20.007Z,101212.63
2023-04-08T08:09:06.942Z,101184.59
2023-04-08T08:11:47.660Z,101191.44
2023-04-08T08:14:15.792Z,101161.38
2023-04-08T08:16:42.733Z,101161.00
2023-04-08T08:19:09.734Z,101161.81
2023-04-08T08:21:56.985Z,101186.44
2023-04-08T08:24:38.110Z,101151.69
2023-04-08T08:27:06.501Z,101186.00
2023-04-08T08:29:33.705Z,101191.13
2023-04-08T08:32:00.692Z,101199.22
2023-04-08T08:34:27.975Z,101196.88
2023-04-08T08:36:54.902Z,101187.25
2023-04-08T08:39:41.995Z,101215.03
2023-04-08T08:42:42.952Z,101151.66
2023-04-08T08:45:27.921Z,101191.13
2023-04-08T08:47:54.838Z,101156.28
2023-04-08T08:50:21.821Z,101163.69
2023-04-08T08:52:52.568Z,101223.16
2023-04-08T08:55:36.264Z,101191.44
2023-04-08T08:58:08.141Z,101207.72
2023-04-08T09:00:39.873Z,101216.81
2023-04-08T09:03:27.937Z,101231.16
2023-04-08T09:06:01.130Z,101221.13
2023-04-08T09:08:36.070Z,101212.19
2023-04-08T09:11:14.890Z,101227.22
2023-04-08T09:13:42.764Z,101168.91
2023-04-08T09:16:16.722Z,101221.06
2023-04-08T09:18:49.228Z,101224.88
2023-04-08T09:21:37.064Z,101215.66
2023-04-08T09:24:37.035Z,101199.38
2023-04-08T09:27:33.976Z,101208.06
2023-04-08T09:30:16.749Z,101175.63
2023-04-08T09:32:54.761Z,101201.53
2023-04-08T09:35:22.536Z,101209.72
2023-04-08T09:37:50.188Z,101211.72
2023-04-08T09:40:40.000Z,101179.28
2023-04-08T09:43:24.175Z,101203.47
2023-04-08T09:45:52.267Z,101185.19
2023-04-08T09:48:27.868Z,101200.75
2023-04-08T09:50:57.962Z,101178.66
2023-04-08T09:53:49.167Z,101190.41
2023-04-08T09:56:17.462Z,101191.13
2023-04-08T09:58:59.332Z,101165.72
2023-04-08T10:01:37.600Z,101185.03
2023-04-08T10:04:09.690Z,101194.88
2023-04-08T10:06:58.006Z,101152.16
2023-04-08T10:09:44.015Z,101168.19
2023-04-08T10:12:10.983Z,101168.09
2023-04-08T10:14:39.150Z,101177.25
2023-04-08T10:17:30.304Z,101189.47
2023-04-08T10:20:17.087Z,101124.31
2023-04-08T10:23:13.530Z,101169.69
2023-04-08T10:25:45.295Z,101112.78
2023-04-08T10:28:12.381Z,101176.28
2023-04-08T10:30:52.647Z,101180.31
2023-04-08T10:33:33.018Z,101183.50
2023-04-08T10:36:00.169Z,101183.78
2023-04-08T10:38:27.447Z,101145.53
2023-04-08T10:41:15.026Z,101104.00
2023-04-08T10:44:19.047Z,101083.97
2023-04-08T10:47:00.294Z,101120.38
2023-04-08T10:49:34.959Z,101170.41
2023-04-08T10:52:07.479Z,101170.44
2023-04-08T10:54:34.673Z,101154.00
2023-04-08T10:57:01.712Z,101115.59
2023-04-08T10:59:32.179Z,101082.97
2023-04-08T11:02:00.701Z,101149.72
2023-04-08T11:04:27.785Z,101120.09
2023-04-08T11:06:54.870Z,101105.44
2023-04-08T11:09:21.882Z,101128.75
2023-04-08T11:11:48.914Z,101126.00
2023-04-08T11:14:19.775Z,101142.09
2023-04-08T11:17:08.047Z,101057.16
2023-04-08T11:19:49.052Z,101121.81
2023-04-08T11:22:38.074Z,101136.00
2023-04-08T11:25:18.809Z,101106.78
2023-04-08T11:27:46.510Z,101088.22
2023-04-08T11:30:13.681Z,101116.53
2023-04-08T11:32:41.186Z,101059.88
2023-04-08T11:35:08.444Z,101053.66
2023-04-08T11:37:40.030Z,101074.91
2023-04-08T11:40:27.047Z,101060.75
2023-04-08T11:43:12.254Z,101114.69
2023-04-08T11:45:40.445Z,101121.75
2023-04-08T11:48:29.089Z,101062.53
2023-04-08T11:51:30.072Z,101108.59
2023-04-08T11:54:32.731Z,101097.06
2023-04-08T11:57:00.021Z,101109.44
2023-04-08T11:59:29.025Z,101068.72
2023-04-08T12:01:56.845Z,101065.22
2023-04-08T12:04:23.849Z,101018.31
2023-04-08T12:06:50.897Z,101012.09
2023-04-08T12:09:17.814Z,101062.53
2023-04-08T12:11:44.935Z,101030.88
2023-04-08T12:14:11.861Z,101059.00
2023-04-08T12:16:38.920Z,101022.41
2023-04-08T12:19:05.916Z,100982.44
2023-04-08T12:21:53.127Z,101001.28
2023-04-08T12:24:34.660Z,101041.03
2023-04-08T12:27:03.329Z,101035.84
2023-04-08T12:29:30.350Z,101048.34
2023-04-08T12:31:57.320Z,101066.94
2023-04-08T12:34:24.857Z,101053.53
2023-04-08T12:36:51.759Z,101052.69
2023-04-08T12:39:39.108Z,101013.81
2023-04-08T12:42:19.704Z,101001.50
2023-04-08T12:44:46.747Z,100967.91
2023-04-08T12:47:13.773Z,101051.00
2023-04-08T12:52:10.639Z,101063.41
2023-04-08T12:54:37.624Z,101062.56
2023-04-08T12:57:04.737Z,101030.69
2023-04-08T12:59:33.565Z,100967.50
2023-04-08T13:02:00.733Z,100986.75
2023-04-08T13:04:27.645Z,101035.38
2023-04-08T13:06:55.724Z,100935.69
2023-04-08T13:09:23.057Z,101009.34
2023-04-08T13:11:50.138Z,101017.41
2023-04-08T13:14:17.502Z,100941.66
2023-04-08T13:17:04.180Z,100978.75
2023-04-08T13:20:05.160Z,101029.00
2023-04-08T13:23:09.143Z,101018.06
2023-04-08T13:25:49.763Z,101032.75
2023-04-08T13:28:16.909Z,100962.09
2023-04-08T13:30:43.904Z,100957.22
2023-04-08T13:33:10.804Z,100958.28
2023-04-08T13:35:37.841Z,100955.72
2023-04-08T13:38:04.763Z,100990.34
2023-04-08T13:40:52.147Z,100984.16
2023-04-08T13:43:32.822Z,101017.97
2023-04-08T13:45:59.688Z,101012.75
2023-04-08T13:48:26.768Z,101006.50
2023-04-08T13:50:53.665Z,101004.81
2023-04-08T13:53:20.798Z,100958.53
2023-04-08T13:55:47.726Z,100981.72
2023-04-08T13:58:23.463Z,100989.63
2023-04-08T14:00:52.007Z,100954.28
2023-04-08T14:03:19.430Z,100985.31
2023-04-08T14:05:46.626Z,101009.19
2023-04-08T14:08:13.974Z,100977.38
2023-04-08T14:10:42.221Z,100992.16
2023-04-08T14:13:09.452Z,100980.28
2023-04-08T14:15:36.594Z,100966.88
2023-04-08T14:18:03.602Z,100966.09
2023-04-08T14:20:51.290Z,100919.06
2023-04-08T14:23:52.189Z,100970.75
2023-04-08T14:26:35.920Z,100968.25
2023-04-08T14:29:04.828Z,100981.50
2023-04-08T14:31:52.199Z,100909.59
2023-04-08T14:34:32.940Z,100989.25
2023-04-08T14:36:59.928Z,100907.03
2023-04-08T14:39:47.198Z,100961.91
2023-04-08T14:42:27.839Z,100955.88
2023-04-08T14:44:54.812Z,100916.97
2023-04-08T14:47:42.198Z,100955.00
2023-04-08T14:50:22.835Z,100931.94
2023-04-08T14:53:10.195Z,100970.19
2023-04-08T14:55:51.212Z,100948.75
2023-04-08T14:58:19.990Z,100953.13
2023-04-08T15:00:47.861Z,100984.38
2023-04-08T15:03:15.684Z,100972.06
2023-04-08T15:05:55.975Z,100926.06
2023-04-08T15:08:22.939Z,100926.19
2023-04-08T15:10:49.973Z,100917.31
2023-04-08T15:13:17.315Z,100982.75
2023-04-08T15:15:44.374Z,100941.09
2023-04-08T15:18:11.566Z,100953.59
2023-04-08T15:20:59.204Z,100933.25
2023-04-08T15:23:42.074Z,100935.09
2023-04-08T15:26:10.055Z,100982.84
2023-04-08T15:28:38.223Z,100905.94
2023-04-08T15:31:05.943Z,100983.78
2023-04-08T15:33:33.192Z,100958.13
2023-04-08T15:36:04.117Z,100965.16
2023-04-08T15:38:51.505Z,100973.09
2023-04-08T15:41:52.211Z,100949.94
2023-04-08T15:44:33.083Z,100981.03
2023-04-08T15:47:00.308Z,100886.41
2023-04-08T15:49:27.270Z,100918.28
2023-04-08T15:51:54.324Z,100950.13
2023-04-08T15:54:21.399Z,100966.03
2023-04-08T15:56:48.322Z,100936.88
2023-04-08T15:59:15.608Z,100958.97
2023-04-08T16:01:42.696Z,100929.81
2023-04-08T16:04:09.986Z,100990.81
2023-04-08T16:06:37.028Z,100959.72
2023-04-08T16:09:04.290Z,100951.72
2023-04-08T16:11:31.463Z,100992.50
2023-04-08T16:13:58.309Z,100915.50
2023-04-08T16:16:25.787Z,100898.59
2023-04-08T16:19:14.412Z,100965.84
2023-04-08T16:22:15.251Z,100926.97
2023-04-08T16:25:04.787Z,100936.66
2023-04-08T16:27:31.668Z,100942.59
2023-04-08T16:29:58.640Z,101006.38
2023-04-08T16:32:46.248Z,100924.75
2023-04-08T16:35:27.232Z,100989.09
2023-04-08T16:38:14.268Z,100974.03
2023-04-08T16:41:06.217Z,100997.03
2023-04-08T16:43:33.098Z,100953.13
2023-04-08T16:45:59.985Z,100969.78
2023-04-08T16:48:27.091Z,100968.81
2023-04-08T16:51:18.262Z,101036.06
2023-04-08T16:54:19.298Z,101045.72
2023-04-08T16:57:20.261Z,101027.88
2023-04-08T17:00:22.419Z,101004.72
2023-04-08T17:02:57.252Z,101030.47
2023-04-08T17:05:25.237Z,101047.34
2023-04-08T17:07:52.938Z,100953.19
2023-04-08T17:10:22.880Z,101040.03
2023-04-08T17:12:49.740Z,101036.59
2023-04-08T17:15:16.638Z,100960.31
2023-04-08T17:17:43.611Z,100959.91
2023-04-08T17:20:31.286Z,101035.34
2023-04-08T17:23:14.708Z,100978.38
2023-04-08T17:25:41.766Z,100973.97
2023-04-08T17:28:29.303Z,101017.41
2023-04-08T17:31:10.790Z,100982.69
2023-04-08T17:33:37.752Z,100997.59
2023-04-08T17:36:05.039Z,100985.13
2023-04-08T17:38:54.278Z,101057.72
2023-04-08T17:41:40.514Z,101064.50
2023-04-08T17:44:08.374Z,101084.38
2023-04-08T17:46:35.591Z,101035.09
2023-04-08T17:49:02.539Z,100997.34
2023-04-08T17:51:31.034Z,101169.81
2023-04-08T17:53:57.935Z,101123.78
2023-04-08T17:56:24.860Z,101113.59
2023-04-08T17:59:12.353Z,101180.88
2023-04-08T18:02:13.376Z,101124.44
2023-04-08T18:05:08.174Z,101180.16
2023-04-08T18:07:36.194Z,101174.50
2023-04-08T18:10:03.648Z,101188.09
2023-04-08T18:12:31.238Z,101185.69
2023-04-08T18:15:18.307Z,101156.81
2023-04-08T18:17:58.998Z,101146.28
2023-04-08T18:20:50.305Z,101074.00
2023-04-08T18:23:51.572Z,101155.22
2023-04-08T18:26:31.879Z,101134.16
2023-04-08T18:29:19.302Z,101149.03
2023-04-08T18:32:00.122Z,101188.84
2023-04-08T18:34:27.240Z,101126.91
2023-04-08T18:36:54.343Z,101174.50
2023-04-08T18:39:41.342Z,101175.69
2023-04-08T18:42:21.943Z,101197.50
2023-04-08T18:44:48.837Z,101191.03
2023-04-08T18:47:17.195Z,101212.47
2023-04-08T18:49:44.284Z,101188.31
2023-04-08T18:52:11.393Z,101176.31
2023-04-08T18:54:38.547Z,101211.88
2023-04-08T18:57:25.321Z,101190.34
2023-04-08T19:00:06.700Z,101219.41
2023-04-08T19:02:33.897Z,101164.66
2023-04-08T19:05:21.364Z,101250.03
2023-04-08T19:08:22.306Z,101230.31
2023-04-08T19:11:23.363Z,101242.38
2023-04-08T19:14:14.359Z,101263.91
2023-04-08T19:17:16.393Z,101256.19
2023-04-08T19:20:17.456Z,101290.13
2023-04-08T19:23:16.298Z,101289.28
2023-04-08T19:25:44.088Z,101199.16
2023-04-08T19:28:13.357Z,101119.50
2023-04-08T19:30:41.157Z,101296.66
2023-04-08T19:33:08.945Z,101278.09
2023-04-08T19:35:36.036Z,101265.91
2023-04-08T19:38:23.331Z,101231.94
2023-04-08T19:41:04.081Z,101213.94
2023-04-08T19:43:31.091Z,101291.34
2023-04-08T19:45:58.295Z,101255.22
2023-04-08T19:48:25.804Z,101179.13
2023-04-08T19:50:53.065Z,101254.38
2023-04-08T19:53:20.124Z,101244.13
2023-04-08T19:55:47.131Z,101237.78
2023-04-08T19:58:14.048Z,101187.34
2023-04-08T20:00:41.377Z,101232.63
2023-04-08T20:03:08.476Z,101246.31
2023-04-08T20:05:55.384Z,101260.09
2023-04-08T20:08:36.109Z,101223.66
2023-04-08T20:11:04.704Z,101194.00
2023-04-08T20:13:31.823Z,101269.56
2023-04-08T20:16:19.415Z,101311.47
2023-04-08T20:19:20.418Z,101236.56
2023-04-08T20:22:21.415Z,101303.25
2023-04-08T20:25:02.009Z,101289.75
2023-04-08T20:27:29.085Z,101222.09
2023-04-08T20:29:56.293Z,101249.66
2023-04-08T20:32:23.764Z,101297.09
2023-04-08T20:34:51.407Z,101255.38
2023-04-08T20:37:38.389Z,101263.69
2023-04-08T20:40:32.532Z,101304.63
2023-04-08T20:43:13.241Z,101342.41
2023-04-08T20:45:40.353Z,101255.88
2023-04-08T20:48:07.562Z,101324.66
2023-04-08T20:50:35.060Z,101252.63
2023-04-08T20:53:02.157Z,101197.00
2023-04-08T20:55:29.067Z,101286.75
2023-04-08T20:57:56.084Z,101324.50
2023-04-08T21:00:23.335Z,101272.41
2023-04-08T21:02:51.055Z,101276.19
2023-04-08T21:05:38.428Z,101282.66
2023-04-08T21:08:32.529Z,101309.19
2023-04-08T21:10:59.507Z,101326.97
2023-04-08T21:13:26.424Z,101346.22
2023-04-08T21:15:53.256Z,101276.50
2023-04-08T21:18:20.142Z,101292.31
2023-04-08T21:21:07.422Z,101313.03
2023-04-08T21:24:08.426Z,101345.81
2023-04-08T21:26:48.985Z,101339.41
2023-04-08T21:29:15.839Z,101211.69
2023-04-08T21:31:42.830Z,101348.31
2023-04-08T21:34:09.882Z,101298.47
2023-04-08T21:36:57.404Z,101291.84
2023-04-08T21:39:59.401Z,101305.59
2023-04-08T21:42:40.016Z,101326.50
2023-04-08T21:45:07.415Z,101339.16
2023-04-08T21:47:34.480Z,101364.09
2023-04-08T21:50:01.436Z,101288.06
2023-04-08T21:52:29.652Z,101281.66
2023-04-08T21:54:56.541Z,101337.91
2023-04-08T21:57:23.500Z,101197.91
2023-04-08T21:59:50.674Z,101344.09
2023-04-08T22:02:17.748Z,101273.78
2023-04-08T22:04:44.842Z,101347.31
2023-04-08T22:07:12.180Z,101312.19
2023-04-08T22:09:39.346Z,101381.13
2023-04-08T22:12:06.373Z,101341.78
2023-04-08T22:14:33.349Z,101378.41
2023-04-08T22:17:00.572Z,101275.84
2023-04-08T22:19:27.553Z,101270.84
2023-04-08T22:22:14.461Z,101320.53
2023-04-08T22:24:54.942Z,101349.25
2023-04-08T22:27:21.925Z,101345.69
2023-04-08T22:29:48.977Z,101364.16
2023-04-08T22:32:18.221Z,101297.59
2023-04-08T22:34:45.306Z,101293.44
2023-04-08T22:37:32.419Z,101320.41
2023-04-08T22:40:33.456Z,101287.81
2023-04-08T22:43:27.556Z,101353.97
2023-04-08T22:45:54.480Z,101379.31
2023-04-08T22:48:22.071Z,101241.13
2023-04-08T22:50:49.019Z,101298.66
2023-04-08T22:53:16.334Z,101358.72
2023-04-08T22:55:43.203Z,101287.09
2023-04-08T22:58:10.085Z,101280.78
2023-04-08T23:00:37.098Z,101350.91
2023-04-08T23:03:04.949Z,101254.13
2023-04-08T23:05:32.374Z,101299.63
2023-04-08T23:07:59.859Z,101371.59
2023-04-08T23:10:26.773Z,101384.53
2023-04-08T23:12:53.726Z,101362.09
2023-04-08T23:15:20.679Z,101357.56
2023-04-08T23:17:47.585Z,101351.78
2023-04-08T23:20:34.478Z,101302.69
2023-04-08T23:23:16.054Z,101382.38
2023-04-08T23:25:42.906Z,101341.78
2023-04-08T23:28:09.880Z,101372.19
2023-04-08T23:30:37.513Z,101310.19
2023-04-08T23:33:04.600Z,101374.19
2023-04-08T23:35:31.650Z,101357.09
2023-04-08T23:38:18.518Z,101367.84
2023-04-08T23:40:59.061Z,101171.19
2023-04-08T23:43:26.029Z,101347.09
2023-04-08T23:45:52.873Z,101357.91
2023-04-08T23:48:19.782Z,101274.78
2023-04-08T23:50:54.989Z,101370.69
2023-04-08T23:53:22.367Z,101386.75
2023-04-08T23:55:49.395Z,101382.91
2023-04-08T23:58:16.345Z,101272.44
